Catalina Jet — WDD8449 — position and weather

sailwx.info

Track history (hours):
 
Tides and Currents Weather Stations Pressure Air Temp Water Temp Dewpoint Dewpoint Depression Visibility Wind Speed Wind Dir Waves Ship Positions

Catalina Jet

Owner: RGWT, INC, San Pedro, CA. More information available from US FCC via Universal Licensing System and Coast Guard Vessel Documentation Center.

Last reported at 2017-Oct-25 15:34 UTC. Time now 2017-Nov-25 06:05 UTC.
Position N 33°44' W 118°16'.
Warning: this ship's position is 30 days out of date.

Length 42 m; draft 3.7 m.

Type: High speed craft. MMSI: 367008510.

Date/timePositionNaut miles runAvg speedWind from/ knotsBaromVisibWave heightAir tempDewpointWater temp
2017-Oct-25 15:34N 33°44' W 118°16'0 0.0
2017-Oct-25 15:30N 33°44' W 118°16'0 0.3
2017-Oct-25 14:58N 33°44' W 118°16'4 7.8
2017-Oct-25 14:30N 33°44' W 118°12'2 4.1
2017-Oct-25 14:00N 33°46' W 118°12'0 0.0
2017-Oct-25 13:30N 33°46' W 118°12'0 0.0
2017-Oct-25 13:00N 33°46' W 118°12'0 0.0
2017-Oct-25 12:29N 33°46' W 118°12'0 0.0
2017-Oct-24 19:38N 33°46' W 118°12'0 0.0
2017-Oct-24 19:30N 33°46' W 118°12'0 0.0
2017-Oct-24 19:00N 33°46' W 118°12'0 0.0
2017-Oct-24 18:30N 33°46' W 118°12'0 0.0
2017-Oct-24 18:00N 33°46' W 118°12'0 0.0
2017-Oct-24 17:30N 33°46' W 118°12'0 0.0
2017-Oct-24 17:00N 33°46' W 118°12'0 0.0
2017-Oct-24 16:30N 33°46' W 118°12'0 0.0
2017-Oct-24 16:00N 33°46' W 118°12'0 0.1
2017-Oct-24 15:30N 33°46' W 118°12'0 0.0
2017-Oct-24 15:00N 33°46' W 118°12'0 0.0
2017-Oct-24 14:30N 33°46' W 118°12'0 0.0
2017-Oct-24 14:00N 33°46' W 118°12'0 0.0
2017-Oct-24 13:29N 33°46' W 118°12'0 0.0
2017-Oct-24 12:58N 33°46' W 118°12'1 0.1
2017-Oct-24 03:30N 33°45' W 118°11'1427.3
2017-Oct-24 03:00N 33°32' W 118°14'11 8.7
2017-Oct-24 01:46N 33°22' W 118°19'830.6
2017-Oct-24 01:30N 33°29' W 118°15'1530.4
2017-Oct-24 01:00N 33°44' W 118°11'2 4.4
2017-Oct-24 00:31N 33°46' W 118°12'0 0.0
2017-Oct-24 00:01N 33°46' W 118°12'816.2
2017-Oct-23 23:31N 33°38' W 118°12'1712.0
2017-Oct-23 22:07N 33°22' W 118°19'929.8
2017-Oct-23 21:48N 33°31' W 118°15'929.8
2017-Oct-23 21:30N 33°39' W 118°12'713.2
2017-Oct-23 21:00N 33°46' W 118°12'0 0.0
2017-Oct-23 20:30N 33°46' W 118°12'1 1.5
2017-Oct-23 20:01N 33°45' W 118°11'2512.6
2017-Oct-23 18:01N 33°21' W 118°19'1528.3
2017-Oct-23 17:29N 33°35' W 118°14'1021.5
2017-Oct-23 17:00N 33°45' W 118°11'1 1.6
2017-Oct-23 16:30N 33°46' W 118°12'0 0.1
2017-Oct-23 16:00N 33°46' W 118°12'13 5.7
2017-Oct-23 13:41N 33°33' W 118°14'730.5
2017-Oct-23 13:28N 33°39' W 118°12'7 1.4
2017-Oct-23 08:40N 33°46' W 118°12'0 0.0
2017-Oct-23 08:26N 33°46' W 118°12'0 0.0
2017-Oct-23 05:29N 33°46' W 118°12'0 0.0
2017-Oct-23 04:41N 33°46' W 118°12'0 0.0
2017-Oct-23 04:30N 33°46' W 118°12'1 0.6
2017-Oct-23 03:33N 33°45' W 118°11'111.5
2017-Oct-23 03:27N 33°44' W 118°11'1329.4
2017-Oct-23 03:00N 33°32' W 118°15'9 6.9
2017-Oct-23 01:42N 33°23' W 118°18'631.5
2017-Oct-23 01:31N 33°29' W 118°16'1631.1
2017-Oct-23 01:01N 33°44' W 118°11'2 4.2
2017-Oct-23 00:28N 33°46' W 118°12'0 0.0
2017-Oct-23 00:01N 33°46' W 118°12'815.0
2017-Oct-22 23:30N 33°38' W 118°12'4 2.4
2017-Oct-22 21:41N 33°34' W 118°14'530.4
2017-Oct-22 21:30N 33°39' W 118°12'612.6
2017-Oct-22 20:59N 33°46' W 118°12'0 0.0
2017-Oct-22 20:29N 33°46' W 118°12'0 0.0
2017-Oct-22 19:55N 33°46' W 118°12'613.4
2017-Oct-22 19:30N 33°40' W 118°11'1911.6
2017-Oct-22 17:52N 33°22' W 118°18'1329.8
2017-Oct-22 17:26N 33°34' W 118°13'1226.2
2017-Oct-22 17:00N 33°45' W 118°11'1 1.0
2017-Oct-22 16:26N 33°46' W 118°12'0 0.0
2017-Oct-22 16:00N 33°46' W 118°12'5 9.8
2017-Oct-22 15:30N 33°41' W 118°11'2113.7
2017-Oct-22 13:59N 33°21' W 118°19'1531.7
2017-Oct-22 13:30N 33°36' W 118°13'10 1.0
2017-Oct-22 03:34N 33°45' W 118°11'423.3
2017-Oct-22 03:23N 33°41' W 118°11'1129.1
2017-Oct-22 03:01N 33°31' W 118°15'10 7.9
2017-Oct-22 01:48N 33°22' W 118°19'930.8
2017-Oct-22 01:30N 33°31' W 118°15'1527.9
2017-Oct-22 00:58N 33°45' W 118°11'1 1.2
2017-Oct-22 00:03N 33°46' W 118°12'0 0.0
2017-Oct-21 23:59N 33°46' W 118°12'613.2
2017-Oct-21 23:30N 33°40' W 118°11'1632.2
2017-Oct-21 23:00N 33°24' W 118°17'4 4.7
2017-Oct-21 22:08N 33°21' W 118°19'320.4
2017-Oct-21 22:01N 33°23' W 118°18'1630.1
2017-Oct-21 21:30N 33°38' W 118°13'814.4
2017-Oct-21 20:56N 33°46' W 118°12'0 0.0
2017-Oct-21 20:22N 33°46' W 118°12'0 0.0
2017-Oct-21 19:53N 33°46' W 118°12'513.7
2017-Oct-21 19:30N 33°41' W 118°11'5 2.5
2017-Oct-21 17:29N 33°36' W 118°13'1018.4
2017-Oct-21 16:58N 33°46' W 118°12'0 0.0
2017-Oct-21 16:30N 33°46' W 118°12'0 0.2
2017-Oct-21 15:48N 33°46' W 118°12'619.2
2017-Oct-21 15:28N 33°39' W 118°11'2013.6
2017-Oct-21 14:01N 33°21' W 118°19'1 0.0
2017-Oct-21 01:47N 33°21' W 118°19'1431.0
2017-Oct-21 01:19N 33°35' W 118°13'9 5.5
2017-Oct-20 23:41N 33°44' W 118°11'7 3.2
2017-Oct-20 21:33N 33°37' W 118°13'229.6
2017-Oct-20 21:29N 33°39' W 118°12'713.1
2017-Oct-20 20:59N 33°46' W 118°12'0 0.0
2017-Oct-20 20:21N 33°46' W 118°12'0 0.0
2017-Oct-20 19:53N 33°46' W 118°12'717.4
2017-Oct-20 19:28N 33°39' W 118°11'4 2.3
2017-Oct-20 17:30N 33°35' W 118°14'1113.5
2017-Oct-20 16:40N 33°46' W 118°12'0 0.0
2017-Oct-20 16:18N 33°46' W 118°12'0 0.0
2017-Oct-20 15:57N 33°46' W 118°12'2613.9
2017-Oct-20 14:07N 33°21' W 118°19'1928.9
2017-Oct-20 13:27N 33°39' W 118°12'710.0
2017-Oct-20 12:46N 33°46' W 118°12'0 0.0
2017-Oct-20 12:29N 33°46' W 118°12'1 0.1
2017-Oct-20 03:28N 33°45' W 118°11'2527.5
2017-Oct-20 02:34N 33°21' W 118°19'1712.8
2017-Oct-20 01:17N 33°37' W 118°13'822.7
2017-Oct-20 00:55N 33°45' W 118°11'1 1.6
2017-Oct-20 00:27N 33°46' W 118°12'1 1.1
2017-Oct-19 23:55N 33°45' W 118°11'2427.2
2017-Oct-19 23:02N 33°22' W 118°19'0 0.2
2017-Oct-19 22:06N 33°22' W 118°19'1530.7
2017-Oct-19 21:37N 33°36' W 118°14'330.2
2017-Oct-19 21:30N 33°39' W 118°12'7 9.8
2017-Oct-19 20:49N 33°46' W 118°12'0 0.0
2017-Oct-19 20:27N 33°46' W 118°12'0 0.0
2017-Oct-19 19:55N 33°46' W 118°12'2523.0
2017-Oct-19 18:51N 33°22' W 118°19'0 0.3
2017-Oct-19 17:53N 33°22' W 118°19'1529.9
2017-Oct-19 17:22N 33°36' W 118°12'1010.6
2017-Oct-19 16:26N 33°46' W 118°12'0 0.0
2017-Oct-19 15:58N 33°46' W 118°12'714.4
2017-Oct-19 15:28N 33°39' W 118°12'1829.7
2017-Oct-19 14:51N 33°21' W 118°19'0 0.1
2017-Oct-19 14:03N 33°21' W 118°19'1830.6
2017-Oct-19 13:27N 33°39' W 118°13'7 0.2
2017-Oct-17 19:14N 33°46' W 118°12'0 0.0
2017-Oct-17 19:00N 33°46' W 118°12'0 0.0
2017-Oct-17 18:28N 33°46' W 118°12'0 0.0
2017-Oct-17 17:57N 33°46' W 118°12'0 0.0
2017-Oct-17 17:30N 33°46' W 118°12'0 0.0
2017-Oct-17 16:56N 33°46' W 118°12'0 0.0
2017-Oct-17 16:26N 33°46' W 118°12'0 0.0
2017-Oct-17 15:55N 33°46' W 118°12'0 0.0
2017-Oct-17 14:25N 33°46' W 118°12'6 0.5
2017-Oct-17 03:16N 33°40' W 118°11'830.3
2017-Oct-17 03:00N 33°32' W 118°15'1211.1
2017-Oct-17 01:56N 33°21' W 118°19'1330.1
2017-Oct-17 01:29N 33°33' W 118°14'1221.5
2017-Oct-17 00:55N 33°46' W 118°12'0 0.4
2017-Oct-17 00:30N 33°46' W 118°12'1 1.0
2017-Oct-16 23:58N 33°45' W 118°11'1226.3
2017-Oct-16 23:30N 33°33' W 118°14'12 9.2
2017-Oct-16 22:08N 33°22' W 118°19'1030.9
2017-Oct-16 21:48N 33°31' W 118°15'930.6
2017-Oct-16 21:30N 33°40' W 118°12'611.1
2017-Oct-16 21:00N 33°46' W 118°12'0 0.0
2017-Oct-16 20:30N 33°46' W 118°12'3 6.6
2017-Oct-16 20:00N 33°43' W 118°11'2211.4
2017-Oct-16 18:05N 33°22' W 118°19'230.6
2017-Oct-16 18:01N 33°24' W 118°18'1530.3
2017-Oct-16 17:30N 33°39' W 118°13'711.9
2017-Oct-16 16:54N 33°46' W 118°12'0 0.0
2017-Oct-16 16:29N 33°46' W 118°12'1 2.6
2017-Oct-16 15:56N 33°45' W 118°11'1228.1
2017-Oct-16 15:30N 33°33' W 118°15'11 7.6
2017-Oct-16 14:00N 33°22' W 118°19'1530.2
2017-Oct-16 13:30N 33°36' W 118°13'9 1.0
2017-Oct-16 04:25N 33°46' W 118°12'0 0.0
2017-Oct-16 04:00N 33°46' W 118°12'1 1.0
2017-Oct-16 03:30N 33°45' W 118°11'1326.3
2017-Oct-16 03:00N 33°33' W 118°14'8 6.5
2017-Oct-16 01:44N 33°25' W 118°18'830.8
2017-Oct-16 01:28N 33°33' W 118°15'1225.7
2017-Oct-16 00:59N 33°45' W 118°11'1 2.2
2017-Oct-16 00:28N 33°46' W 118°12'0 0.3
2017-Oct-15 23:58N 33°46' W 118°12'920.7
2017-Oct-15 23:31N 33°36' W 118°12'1529.1
2017-Oct-15 23:01N 33°23' W 118°19'2 1.9
2017-Oct-15 21:59N 33°25' W 118°18'1530.7
2017-Oct-15 21:30N 33°38' W 118°13'713.3
2017-Oct-15 20:57N 33°46' W 118°12'0 0.0
2017-Oct-15 20:20N 33°46' W 118°12'0 0.0
2017-Oct-15 20:00N 33°46' W 118°12'510.2
2017-Oct-15 19:30N 33°41' W 118°11'2116.4
2017-Oct-15 18:12N 33°21' W 118°19'0 0.9
2017-Oct-15 18:01N 33°21' W 118°19'1427.6
2017-Oct-15 17:30N 33°34' W 118°14'1223.6
2017-Oct-15 17:00N 33°46' W 118°12'0 0.5
2017-Oct-15 16:28N 33°46' W 118°12'0 0.0
2017-Oct-15 15:59N 33°46' W 118°12'  
Track history (hours):
 
Tides and Currents Weather Stations Pressure Air Temp Water Temp Dewpoint Dewpoint Depression Visibility Wind Speed Wind Dir Waves Ship Positions

Catalina Jet

Owner: RGWT, INC, San Pedro, CA. More information available from US FCC via Universal Licensing System and Coast Guard Vessel Documentation Center.

Last reported at 2017-Oct-25 15:34 UTC. Time now 2017-Nov-25 06:05 UTC.
Position N 33°44' W 118°16'.
Warning: this ship's position is 30 days out of date.

Length 42 m; draft 3.7 m.

Type: High speed craft. MMSI: 367008510.

Date/timePositionNaut miles runAvg speedWind from/ knotsBaromVisibWave heightAir tempDewpointWater temp
2017-Oct-25 15:34N 33°44' W 118°16'0 0.0
2017-Oct-25 15:30N 33°44' W 118°16'0 0.3
2017-Oct-25 14:58N 33°44' W 118°16'4 7.8
2017-Oct-25 14:30N 33°44' W 118°12'2 4.1
2017-Oct-25 14:00N 33°46' W 118°12'0 0.0
2017-Oct-25 13:30N 33°46' W 118°12'0 0.0
2017-Oct-25 13:00N 33°46' W 118°12'0 0.0
2017-Oct-25 12:29N 33°46' W 118°12'0 0.0
2017-Oct-24 19:38N 33°46' W 118°12'0 0.0
2017-Oct-24 19:30N 33°46' W 118°12'0 0.0
2017-Oct-24 19:00N 33°46' W 118°12'0 0.0
2017-Oct-24 18:30N 33°46' W 118°12'0 0.0
2017-Oct-24 18:00N 33°46' W 118°12'0 0.0
2017-Oct-24 17:30N 33°46' W 118°12'0 0.0
2017-Oct-24 17:00N 33°46' W 118°12'0 0.0
2017-Oct-24 16:30N 33°46' W 118°12'0 0.0
2017-Oct-24 16:00N 33°46' W 118°12'0 0.1
2017-Oct-24 15:30N 33°46' W 118°12'0 0.0
2017-Oct-24 15:00N 33°46' W 118°12'0 0.0
2017-Oct-24 14:30N 33°46' W 118°12'0 0.0
2017-Oct-24 14:00N 33°46' W 118°12'0 0.0
2017-Oct-24 13:29N 33°46' W 118°12'0 0.0
2017-Oct-24 12:58N 33°46' W 118°12'1 0.1
2017-Oct-24 03:30N 33°45' W 118°11'1427.3
2017-Oct-24 03:00N 33°32' W 118°14'11 8.7
2017-Oct-24 01:46N 33°22' W 118°19'830.6
2017-Oct-24 01:30N 33°29' W 118°15'1530.4
2017-Oct-24 01:00N 33°44' W 118°11'2 4.4
2017-Oct-24 00:31N 33°46' W 118°12'0 0.0
2017-Oct-24 00:01N 33°46' W 118°12'816.2
2017-Oct-23 23:31N 33°38' W 118°12'1712.0
2017-Oct-23 22:07N 33°22' W 118°19'929.8
2017-Oct-23 21:48N 33°31' W 118°15'929.8
2017-Oct-23 21:30N 33°39' W 118°12'713.2
2017-Oct-23 21:00N 33°46' W 118°12'0 0.0
2017-Oct-23 20:30N 33°46' W 118°12'1 1.5
2017-Oct-23 20:01N 33°45' W 118°11'2512.6
2017-Oct-23 18:01N 33°21' W 118°19'1528.3
2017-Oct-23 17:29N 33°35' W 118°14'1021.5
2017-Oct-23 17:00N 33°45' W 118°11'1 1.6
2017-Oct-23 16:30N 33°46' W 118°12'0 0.1
2017-Oct-23 16:00N 33°46' W 118°12'13 5.7
2017-Oct-23 13:41N 33°33' W 118°14'730.5
2017-Oct-23 13:28N 33°39' W 118°12'7 1.4
2017-Oct-23 08:40N 33°46' W 118°12'0 0.0
2017-Oct-23 08:26N 33°46' W 118°12'0 0.0
2017-Oct-23 05:29N 33°46' W 118°12'0 0.0
2017-Oct-23 04:41N 33°46' W 118°12'0 0.0
2017-Oct-23 04:30N 33°46' W 118°12'1 0.6
2017-Oct-23 03:33N 33°45' W 118°11'111.5
2017-Oct-23 03:27N 33°44' W 118°11'1329.4
2017-Oct-23 03:00N 33°32' W 118°15'9 6.9
2017-Oct-23 01:42N 33°23' W 118°18'631.5
2017-Oct-23 01:31N 33°29' W 118°16'1631.1
2017-Oct-23 01:01N 33°44' W 118°11'2 4.2
2017-Oct-23 00:28N 33°46' W 118°12'0 0.0
2017-Oct-23 00:01N 33°46' W 118°12'815.0
2017-Oct-22 23:30N 33°38' W 118°12'4 2.4
2017-Oct-22 21:41N 33°34' W 118°14'530.4
2017-Oct-22 21:30N 33°39' W 118°12'612.6
2017-Oct-22 20:59N 33°46' W 118°12'0 0.0
2017-Oct-22 20:29N 33°46' W 118°12'0 0.0
2017-Oct-22 19:55N 33°46' W 118°12'613.4
2017-Oct-22 19:30N 33°40' W 118°11'1911.6
2017-Oct-22 17:52N 33°22' W 118°18'1329.8
2017-Oct-22 17:26N 33°34' W 118°13'1226.2
2017-Oct-22 17:00N 33°45' W 118°11'1 1.0
2017-Oct-22 16:26N 33°46' W 118°12'0 0.0
2017-Oct-22 16:00N 33°46' W 118°12'5 9.8
2017-Oct-22 15:30N 33°41' W 118°11'2113.7
2017-Oct-22 13:59N 33°21' W 118°19'1531.7
2017-Oct-22 13:30N 33°36' W 118°13'10 1.0
2017-Oct-22 03:34N 33°45' W 118°11'423.3
2017-Oct-22 03:23N 33°41' W 118°11'1129.1
2017-Oct-22 03:01N 33°31' W 118°15'10 7.9
2017-Oct-22 01:48N 33°22' W 118°19'930.8
2017-Oct-22 01:30N 33°31' W 118°15'1527.9
2017-Oct-22 00:58N 33°45' W 118°11'1 1.2
2017-Oct-22 00:03N 33°46' W 118°12'0 0.0
2017-Oct-21 23:59N 33°46' W 118°12'613.2
2017-Oct-21 23:30N 33°40' W 118°11'1632.2
2017-Oct-21 23:00N 33°24' W 118°17'4 4.7
2017-Oct-21 22:08N 33°21' W 118°19'320.4
2017-Oct-21 22:01N 33°23' W 118°18'1630.1
2017-Oct-21 21:30N 33°38' W 118°13'814.4
2017-Oct-21 20:56N 33°46' W 118°12'0 0.0
2017-Oct-21 20:22N 33°46' W 118°12'0 0.0
2017-Oct-21 19:53N 33°46' W 118°12'513.7
2017-Oct-21 19:30N 33°41' W 118°11'5 2.5
2017-Oct-21 17:29N 33°36' W 118°13'1018.4
2017-Oct-21 16:58N 33°46' W 118°12'0 0.0
2017-Oct-21 16:30N 33°46' W 118°12'0 0.2
2017-Oct-21 15:48N 33°46' W 118°12'619.2
2017-Oct-21 15:28N 33°39' W 118°11'2013.6
2017-Oct-21 14:01N 33°21' W 118°19'1 0.0
2017-Oct-21 01:47N 33°21' W 118°19'1431.0
2017-Oct-21 01:19N 33°35' W 118°13'9 5.5
2017-Oct-20 23:41N 33°44' W 118°11'7 3.2
2017-Oct-20 21:33N 33°37' W 118°13'229.6
2017-Oct-20 21:29N 33°39' W 118°12'713.1
2017-Oct-20 20:59N 33°46' W 118°12'0 0.0
2017-Oct-20 20:21N 33°46' W 118°12'0 0.0
2017-Oct-20 19:53N 33°46' W 118°12'717.4
2017-Oct-20 19:28N 33°39' W 118°11'4 2.3
2017-Oct-20 17:30N 33°35' W 118°14'1113.5
2017-Oct-20 16:40N 33°46' W 118°12'0 0.0
2017-Oct-20 16:18N 33°46' W 118°12'0 0.0
2017-Oct-20 15:57N 33°46' W 118°12'2613.9
2017-Oct-20 14:07N 33°21' W 118°19'1928.9
2017-Oct-20 13:27N 33°39' W 118°12'710.0
2017-Oct-20 12:46N 33°46' W 118°12'0 0.0
2017-Oct-20 12:29N 33°46' W 118°12'1 0.1
2017-Oct-20 03:28N 33°45' W 118°11'2527.5
2017-Oct-20 02:34N 33°21' W 118°19'1712.8
2017-Oct-20 01:17N 33°37' W 118°13'822.7
2017-Oct-20 00:55N 33°45' W 118°11'1 1.6
2017-Oct-20 00:27N 33°46' W 118°12'1 1.1
2017-Oct-19 23:55N 33°45' W 118°11'2427.2
2017-Oct-19 23:02N 33°22' W 118°19'0 0.2
2017-Oct-19 22:06N 33°22' W 118°19'1530.7
2017-Oct-19 21:37N 33°36' W 118°14'330.2
2017-Oct-19 21:30N 33°39' W 118°12'7 9.8
2017-Oct-19 20:49N 33°46' W 118°12'0 0.0
2017-Oct-19 20:27N 33°46' W 118°12'0 0.0
2017-Oct-19 19:55N 33°46' W 118°12'2523.0
2017-Oct-19 18:51N 33°22' W 118°19'0 0.3
2017-Oct-19 17:53N 33°22' W 118°19'1529.9
2017-Oct-19 17:22N 33°36' W 118°12'1010.6
2017-Oct-19 16:26N 33°46' W 118°12'0 0.0
2017-Oct-19 15:58N 33°46' W 118°12'714.4
2017-Oct-19 15:28N 33°39' W 118°12'1829.7
2017-Oct-19 14:51N 33°21' W 118°19'0 0.1
2017-Oct-19 14:03N 33°21' W 118°19'1830.6
2017-Oct-19 13:27N 33°39' W 118°13'7 0.2
2017-Oct-17 19:14N 33°46' W 118°12'0 0.0
2017-Oct-17 19:00N 33°46' W 118°12'0 0.0
2017-Oct-17 18:28N 33°46' W 118°12'0 0.0
2017-Oct-17 17:57N 33°46' W 118°12'0 0.0
2017-Oct-17 17:30N 33°46' W 118°12'0 0.0
2017-Oct-17 16:56N 33°46' W 118°12'0 0.0
2017-Oct-17 16:26N 33°46' W 118°12'0 0.0
2017-Oct-17 15:55N 33°46' W 118°12'0 0.0
2017-Oct-17 14:25N 33°46' W 118°12'6 0.5
2017-Oct-17 03:16N 33°40' W 118°11'830.3
2017-Oct-17 03:00N 33°32' W 118°15'1211.1
2017-Oct-17 01:56N 33°21' W 118°19'1330.1
2017-Oct-17 01:29N 33°33' W 118°14'1221.5
2017-Oct-17 00:55N 33°46' W 118°12'0 0.4
2017-Oct-17 00:30N 33°46' W 118°12'1 1.0
2017-Oct-16 23:58N 33°45' W 118°11'1226.3
2017-Oct-16 23:30N 33°33' W 118°14'12 9.2
2017-Oct-16 22:08N 33°22' W 118°19'1030.9
2017-Oct-16 21:48N 33°31' W 118°15'930.6
2017-Oct-16 21:30N 33°40' W 118°12'611.1
2017-Oct-16 21:00N 33°46' W 118°12'0 0.0
2017-Oct-16 20:30N 33°46' W 118°12'3 6.6
2017-Oct-16 20:00N 33°43' W 118°11'2211.4
2017-Oct-16 18:05N 33°22' W 118°19'230.6
2017-Oct-16 18:01N 33°24' W 118°18'1530.3
2017-Oct-16 17:30N 33°39' W 118°13'711.9
2017-Oct-16 16:54N 33°46' W 118°12'0 0.0
2017-Oct-16 16:29N 33°46' W 118°12'1 2.6
2017-Oct-16 15:56N 33°45' W 118°11'1228.1
2017-Oct-16 15:30N 33°33' W 118°15'11 7.6
2017-Oct-16 14:00N 33°22' W 118°19'1530.2
2017-Oct-16 13:30N 33°36' W 118°13'9 1.0
2017-Oct-16 04:25N 33°46' W 118°12'0 0.0
2017-Oct-16 04:00N 33°46' W 118°12'1 1.0
2017-Oct-16 03:30N 33°45' W 118°11'1326.3
2017-Oct-16 03:00N 33°33' W 118°14'8 6.5
2017-Oct-16 01:44N 33°25' W 118°18'830.8
2017-Oct-16 01:28N 33°33' W 118°15'1225.7
2017-Oct-16 00:59N 33°45' W 118°11'1 2.2
2017-Oct-16 00:28N 33°46' W 118°12'0 0.3
2017-Oct-15 23:58N 33°46' W 118°12'920.7
2017-Oct-15 23:31N 33°36' W 118°12'1529.1
2017-Oct-15 23:01N 33°23' W 118°19'2 1.9
2017-Oct-15 21:59N 33°25' W 118°18'1530.7
2017-Oct-15 21:30N 33°38' W 118°13'713.3
2017-Oct-15 20:57N 33°46' W 118°12'0 0.0
2017-Oct-15 20:20N 33°46' W 118°12'0 0.0
2017-Oct-15 20:00N 33°46' W 118°12'510.2
2017-Oct-15 19:30N 33°41' W 118°11'2116.4
2017-Oct-15 18:12N 33°21' W 118°19'0 0.9
2017-Oct-15 18:01N 33°21' W 118°19'1427.6
2017-Oct-15 17:30N 33°34' W 118°14'1223.6
2017-Oct-15 17:00N 33°46' W 118°12'0 0.5
2017-Oct-15 16:28N 33°46' W 118°12'0 0.0
2017-Oct-15 15:59N 33°46' W 118°12'  

Dump ship's entire track history